| time (UTC) | temp F | wind direction | speed knots | gust knots | rain 1hr in | rain 24hr in | rain mn in | humidity % | barometer mb |
| 20260507080108 | 54 | 39 | 2.6 | 3.5 | 0.12 | 0.15 | 0.15 | 94 | 1006.1 |
| 20260507075603 | 55 | 55 | 3.5 | 3.5 | 0.24 | 0.15 | 0.15 | 94 | 1006.0 |
| 20260507075100 | 55 | 36 | 3.5 | 3.5 | 0.35 | 0.13 | 0.13 | 94 | 1006.2 |
| 20260507074557 | 55 | 46 | 2.6 | 3.5 | 0.42 | 0.11 | 0.11 | 94 | 1006.2 |
| 20260507074055 | 55 | 41 | 5.2 | 6.1 | 0.28 | 0.08 | 0.08 | 94 | 1006.2 |
| 20260507073550 | 56 | 311 | 7.8 | 11.3 | 0.17 | 0.04 | 0.04 | 94 | 1006.1 |
| 20260507073047 | 56 | 49 | 1.7 | 2.6 | 0.05 | 0.02 | 0.02 | 95 | 1005.5 |
| 20260507072545 | 55 | 330 | 2.6 | 3.5 | 0.00 | 0.01 | 0.01 | 95 | 1005.5 |
| 20260507072042 | 55 | 43 | 2.6 | 3.5 | 0.00 | 0.01 | 0.01 | 96 | 1005.4 |
| 20260507071539 | 55 | 81 | 0.0 | 0.0 | 0.00 | 0.01 | 0.01 | 96 | 1005.1 |
| 20260507071036 | 55 | 145 | 0.0 | 0.0 | 0.00 | 0.01 | 0.01 | 96 | 1005.3 |
| 20260507070533 | 55 | 87 | 0.0 | 0.0 | 0.00 | 0.01 | 0.01 | 96 | 1004.9 |
| 20260507070030 | 55 | 81 | 0.0 | 0.0 | 0.00 | 0.01 | 0.01 | 96 | 1004.9 |
| 20260507065526 | 55 | 99 | 0.0 | 0.0 | 0.00 | 0.01 | 0.01 | 96 | 1004.8 |
| 20260507065023 | 55 | 96 | 0.0 | 0.0 | 0.00 | 0.01 | 0.01 | 96 | 1004.7 |
| 20260507064521 | 54 | 90 | 0.0 | 0.0 | 0.00 | 0.01 | 0.01 | 96 | 1004.9 |
| 20260507064020 | 54 | 76 | 0.0 | 0.0 | 0.00 | 0.01 | 0.01 | 96 | 1005.1 |
| 20260507063516 | 54 | 61 | 0.0 | 0.0 | 0.00 | 0.01 | 0.01 | 96 | 1005.2 |
| 20260507063014 | 54 | 103 | 0.0 | 0.0 | 0.00 | 0.01 | 0.01 | 96 | 1005.1 |
| 20260507062510 | 54 | 96 | 0.0 | 0.0 | 0.00 | 0.01 | 0.01 | 96 | 1005.3 |
| 20260507062008 | 53 | 124 | 0.9 | 1.7 | 0.00 | 0.01 | 0.01 | 96 | 1005.2 |
| 20260507061506 | 53 | 140 | 0.0 | 0.9 | 0.00 | 0.01 | 0.01 | 96 | 1005.2 |
| 20260507061004 | 53 | 112 | 0.9 | 1.7 | 0.00 | 0.01 | 0.01 | 96 | 1005.2 |
| 20260507060501 | 53 | 109 | 0.9 | 1.7 | 0.00 | 0.01 | 0.01 | 95 | 1005.2 |
| 20260507055957 | 53 | 136 | 0.0 | 0.0 | 0.07 | 0.01 | 0.01 | 95 | 1005.0 |
| 20260507055452 | 54 | 156 | 0.9 | 0.9 | 0.07 | 0.01 | 0.01 | 95 | 1005.4 |
| 20260507054949 | 54 | 165 | 3.5 | 3.5 | 0.00 | 0.00 | 0.00 | 96 | 1005.4 |
| 20260507054445 | 53 | 190 | 3.5 | 3.5 | 0.00 | 0.00 | 0.00 | 96 | 1005.9 |
| 20260507053943 | 53 | 177 | 3.5 | 5.2 | 0.00 | 0.00 | 0.00 | 95 | 1005.7 |
| 20260507053440 | 54 | 149 | 3.5 | 3.5 | 0.00 | 0.00 | 0.00 | 95 | 1005.9 |
| 20260507052938 | 54 | 181 | 3.5 | 3.5 | 0.00 | 0.00 | 0.00 | 95 | 1005.9 |
| 20260507052436 | 54 | 94 | 0.0 | 0.0 | 0.00 | 0.00 | 0.00 | 95 | 1005.8 |
| 20260507051933 | 54 | 170 | 1.7 | 2.6 | 0.00 | 0.00 | 0.00 | 95 | 1006.0 |
| 20260507051430 | 54 | 185 | 3.5 | 3.5 | 0.00 | 0.00 | 0.00 | 95 | 1006.0 |
| 20260507050927 | 54 | 189 | 3.5 | 3.5 | 0.00 | 0.00 | 0.00 | 95 | 1006.2 |
| 20260507050423 | 54 | 172 | 4.3 | 5.2 | 0.00 | 0.00 | 0.00 | 95 | 1006.2 |
| 20260507045920 | 54 | 178 | 2.6 | 2.6 | 0.00 | 0.00 | 0.00 | 95 | 1006.4 |
| 20260507045417 | 54 | 173 | 3.5 | 3.5 | 0.00 | 0.00 | 0.00 | 95 | 1006.2 |
| 20260507044914 | 54 | 188 | 3.5 | 3.5 | 0.00 | 0.00 | 0.00 | 95 | 1006.0 |
| 20260507044411 | 54 | 171 | 3.5 | 3.5 | 0.00 | 0.00 | 0.00 | 95 | 1006.1 |
| 20260507043907 | 54 | 187 | 3.5 | 3.5 | 0.00 | 0.00 | 0.00 | 95 | 1006.1 |
| 20260507043403 | 54 | 186 | 3.5 | 3.5 | 0.00 | 0.00 | 0.00 | 95 | 1006.2 |
| 20260507042859 | 54 | 200 | 4.3 | 5.2 | 0.00 | 0.00 | 0.00 | 95 | 1006.2 |
| 20260507042355 | 54 | 182 | 5.2 | 5.2 | 0.00 | 0.00 | 0.00 | 94 | 1006.1 |
| 20260507041846 | 54 | 202 | 5.2 | 6.1 | 0.00 | 0.00 | 0.00 | 95 | 1006.3 |
| 20260507041343 | 54 | 191 | 5.2 | 6.1 | 0.00 | 0.00 | 0.00 | 94 | 1006.0 |
| 20260507040840 | 55 | 174 | 5.2 | 6.1 | 0.00 | 0.00 | 0.00 | 94 | 1006.1 |
| 20260507040336 | 55 | 179 | 5.2 | 6.1 | 0.00 | 0.00 | 0.00 | 94 | 1006.0 |
| 20260507035832 | 55 | 196 | 6.1 | 7.0 | 0.00 | 0.03 | 0.03 | 95 | 1006.3 |
| 20260507035328 | 55 | 196 | 3.5 | 3.5 | 0.00 | 0.03 | 0.03 | 94 | 1006.4 |
| 20260507034826 | 55 | 145 | 2.6 | 2.6 | 0.00 | 0.03 | 0.03 | 93 | 1006.3 |
| 20260507034322 | 56 | 165 | 2.6 | 2.6 | 0.00 | 0.03 | 0.03 | 94 | 1006.3 |
| 20260507033820 | 56 | 196 | 4.3 | 5.2 | 0.00 | 0.03 | 0.03 | 94 | 1006.3 |
| 20260507033318 | 56 | 191 | 2.6 | 2.6 | 0.00 | 0.03 | 0.03 | 93 | 1006.4 |
| 20260507032814 | 56 | 189 | 3.5 | 3.5 | 0.00 | 0.03 | 0.03 | 94 | 1006.3 |
| 20260507032310 | 56 | 208 | 3.5 | 3.5 | 0.00 | 0.03 | 0.03 | 94 | 1006.5 |
| 20260507031807 | 56 | 225 | 5.2 | 6.1 | 0.00 | 0.03 | 0.03 | 94 | 1006.5 |
| 20260507031304 | 56 | 223 | 4.3 | 5.2 | 0.00 | 0.03 | 0.03 | 94 | 1006.6 |
| 20260507030800 | 56 | 202 | 4.3 | 5.2 | 0.00 | 0.03 | 0.03 | 94 | 1006.3 |
| 20260507030258 | 56 | 224 | 5.2 | 6.1 | 0.00 | 0.03 | 0.03 | 94 | 1006.5 |
| 20260507025755 | 56 | 217 | 5.2 | 6.1 | 0.00 | 0.03 | 0.03 | 94 | 1006.3 |
| 20260507025253 | 56 | 231 | 7.8 | 7.8 | 0.00 | 0.03 | 0.03 | 94 | 1006.2 |
| 20260507024750 | 56 | 233 | 7.8 | 8.7 | 0.00 | 0.03 | 0.03 | 94 | 1006.3 |
| 20260507024247 | 56 | 235 | 6.1 | 7.0 | 0.00 | 0.03 | 0.03 | 94 | 1006.4 |
| 20260507023743 | 56 | 219 | 7.8 | 7.8 | 0.00 | 0.03 | 0.03 | 94 | 1006.5 |
| 20260507023240 | 56 | 237 | 7.0 | 7.0 | 0.00 | 0.03 | 0.03 | 94 | 1006.4 |
| 20260507022737 | 56 | 228 | 6.1 | 7.0 | 0.00 | 0.03 | 0.03 | 94 | 1006.2 |
| 20260507022233 | 56 | 229 | 7.0 | 7.8 | 0.00 | 0.03 | 0.03 | 94 | 1006.4 |
| 20260507021729 | 56 | 226 | 6.1 | 7.0 | 0.00 | 0.03 | 0.03 | 94 | 1006.8 |
| 20260507021225 | 55 | 213 | 7.0 | 7.0 | 0.00 | 0.03 | 0.03 | 94 | 1006.8 |
| 20260507020724 | 55 | 212 | 8.7 | 9.6 | 0.00 | 0.03 | 0.03 | 94 | 1006.8 |
| 20260507020219 | 55 | 201 | 8.7 | 9.6 | 0.00 | 0.03 | 0.03 | 94 | 1006.4 |
| 20260507015717 | 55 | 210 | 9.6 | 9.6 | 0.00 | 0.03 | 0.03 | 93 | 1006.5 |
| 20260507015215 | 55 | 206 | 7.8 | 9.6 | 0.00 | 0.03 | 0.03 | 93 | 1006.4 |
| 20260507014711 | 56 | 206 | 10.4 | 11.3 | 0.00 | 0.03 | 0.03 | 93 | 1006.4 |
| 20260507014207 | 56 | 213 | 11.3 | 13.0 | 0.00 | 0.03 | 0.03 | 93 | 1006.6 |
| 20260507013704 | 56 | 204 | 9.6 | 11.3 | 0.00 | 0.03 | 0.03 | 93 | 1006.8 |
| 20260507013202 | 56 | 207 | 9.6 | 9.6 | 0.00 | 0.03 | 0.03 | 93 | 1006.7 |
| 20260507012659 | 56 | 220 | 9.6 | 9.6 | 0.00 | 0.03 | 0.03 | 93 | 1006.8 |
| 20260507012154 | 56 | 205 | 8.7 | 9.6 | 0.00 | 0.03 | 0.03 | 93 | 1006.6 |
| 20260507011652 | 56 | 231 | 10.4 | 12.2 | 0.00 | 0.03 | 0.03 | 93 | 1006.8 |
| 20260507011148 | 56 | 216 | 12.2 | 13.9 | 0.00 | 0.03 | 0.03 | 93 | 1006.9 |
| 20260507010643 | 56 | 221 | 12.2 | 13.9 | 0.00 | 0.03 | 0.03 | 93 | 1007.1 |
| 20260507010139 | 56 | 208 | 10.4 | 11.3 | 0.00 | 0.03 | 0.03 | 93 | 1006.9 |
| 20260507005637 | 56 | 210 | 9.6 | 9.6 | 0.00 | 0.03 | 0.03 | 93 | 1007.2 |
| 20260507005133 | 56 | 220 | 9.6 | 9.6 | 0.00 | 0.03 | 0.03 | 93 | 1007.1 |
| 20260507004630 | 56 | 234 | 11.3 | 12.2 | 0.00 | 0.03 | 0.03 | 93 | 1006.9 |
| 20260507004128 | 56 | 221 | 10.4 | 11.3 | 0.00 | 0.03 | 0.03 | 93 | 1007.1 |
| 20260507003624 | 56 | 221 | 10.4 | 11.3 | 0.00 | 0.03 | 0.03 | 92 | 1007.1 |
| 20260507003118 | 56 | 230 | 12.2 | 13.9 | 0.00 | 0.03 | 0.03 | 92 | 1007.0 |
| 20260507002615 | 56 | 215 | 8.7 | 9.6 | 0.00 | 0.03 | 0.03 | 92 | 1007.1 |
| 20260507002111 | 56 | 222 | 10.4 | 12.2 | 0.00 | 0.03 | 0.03 | 92 | 1006.8 |
| 20260507001608 | 56 | 235 | 11.3 | 13.0 | 0.00 | 0.03 | 0.03 | 92 | 1006.8 |
| 20260507001106 | 56 | 228 | 13.9 | 14.8 | 0.00 | 0.03 | 0.03 | 92 | 1007.0 |
| 20260507000602 | 56 | 231 | 10.4 | 11.3 | 0.00 | 0.03 | 0.03 | 92 | 1006.8 |
| 20260507000057 | 56 | 231 | 13.0 | 14.8 | 0.00 | 0.03 | 0.03 | 92 | 1006.8 |
| 20260506235555 | 56 | 218 | 13.0 | 14.8 | 0.00 | 0.03 | 0.03 | 92 | 1006.8 |
| 20260506235050 | 56 | 227 | 8.7 | 8.7 | 0.00 | 0.03 | 0.03 | 92 | 1006.8 |
| 20260506234548 | 56 | 234 | 14.8 | 20.0 | 0.00 | 0.03 | 0.03 | 92 | 1006.9 |
| 20260506234044 | 56 | 216 | 11.3 | 13.9 | 0.00 | 0.03 | 0.03 | 92 | 1007.0 |
| 20260506233542 | 56 | 217 | 13.9 | 14.8 | 0.00 | 0.03 | 0.03 | 93 | 1006.9 |
| 20260506233038 | 56 | 216 | 12.2 | 13.9 | 0.00 | 0.03 | 0.03 | 93 | 1006.8 |
| 20260506232534 | 56 | 227 | 12.2 | 13.9 | 0.00 | 0.03 | 0.03 | 93 | 1006.9 |
| 20260506232030 | 56 | 224 | 12.2 | 13.0 | 0.00 | 0.03 | 0.03 | 93 | 1006.9 |
| 20260506231528 | 56 | 234 | 13.0 | 13.9 | 0.00 | 0.03 | 0.03 | 93 | 1006.8 |
| 20260506231026 | 56 | 210 | 16.5 | 18.2 | 0.00 | 0.03 | 0.03 | 93 | 1006.8 |
| 20260506230522 | 56 | 218 | 14.8 | 14.8 | 0.00 | 0.03 | 0.03 | 93 | 1006.7 |
| 20260506230019 | 56 | 224 | 14.8 | 15.6 | 0.00 | 0.03 | 0.03 | 93 | 1006.7 |
| 20260506225516 | 56 | 215 | 13.0 | 13.9 | 0.00 | 0.03 | 0.03 | 93 | 1006.8 |
| 20260506225012 | 56 | 210 | 12.2 | 13.9 | 0.00 | 0.03 | 0.03 | 94 | 1006.6 |
| 20260506224509 | 56 | 223 | 12.2 | 13.0 | 0.00 | 0.03 | 0.03 | 94 | 1006.7 |
| 20260506224006 | 56 | 217 | 12.2 | 13.0 | 0.00 | 0.03 | 0.03 | 94 | 1006.6 |
| 20260506223501 | 56 | 216 | 16.5 | 16.5 | 0.00 | 0.03 | 0.03 | 94 | 1006.6 |
| 20260506222954 | 55 | 209 | 14.8 | 15.6 | 0.05 | 0.03 | 0.03 | 94 | 1006.8 |
| 20260506222450 | 55 | 194 | 11.3 | 13.0 | 0.05 | 0.03 | 0.03 | 93 | 1006.9 |
| 20260506221946 | 56 | 206 | 13.9 | 14.8 | 0.00 | 0.02 | 0.02 | 93 | 1006.8 |
| 20260506221443 | 56 | 202 | 13.0 | 13.9 | 0.07 | 0.02 | 0.02 | 92 | 1006.8 |
| 20260506220941 | 56 | 199 | 12.2 | 13.0 | 0.07 | 0.02 | 0.02 | 92 | 1007.0 |
| 20260506220436 | 57 | 212 | 13.0 | 13.9 | 0.00 | 0.01 | 0.01 | 92 | 1007.1 |
| 20260506215933 | 57 | 212 | 12.2 | 13.0 | 0.00 | 0.01 | 0.01 | 91 | 1007.2 |
| 20260506215429 | 57 | 219 | 11.3 | 14.8 | 0.00 | 0.01 | 0.01 | 91 | 1007.2 |
| 20260506214925 | 57 | 205 | 11.3 | 12.2 | 0.00 | 0.01 | 0.01 | 91 | 1007.2 |
| 20260506214422 | 57 | 198 | 11.3 | 13.0 | 0.07 | 0.01 | 0.01 | 92 | 1007.2 |
| 20260506213920 | 57 | 220 | 15.6 | 18.2 | 0.07 | 0.01 | 0.01 | 92 | 1007.3 |
| 20260506213418 | 57 | 210 | 12.2 | 13.0 | 0.00 | 0.00 | 0.00 | 92 | 1007.4 |
| 20260506212915 | 57 | 220 | 13.0 | 13.9 | 0.00 | 0.00 | 0.00 | 91 | 1007.4 |
| 20260506212411 | 57 | 226 | 11.3 | 12.2 | 0.00 | 0.00 | 0.00 | 92 | 1007.5 |
| 20260506211905 | 57 | 205 | 7.0 | 7.8 | 0.00 | 0.00 | 0.00 | 91 | 1007.6 |
| 20260506211402 | 57 | 226 | 9.6 | 9.6 | 0.00 | 0.00 | 0.00 | 91 | 1007.5 |
| 20260506210859 | 57 | 205 | 12.2 | 13.0 | 0.00 | 0.00 | 0.00 | 91 | 1007.6 |
| 20260506210356 | 57 | 232 | 11.3 | 12.2 | 0.00 | 0.00 | 0.00 | 91 | 1007.5 |
| 20260506205853 | 57 | 209 | 12.2 | 13.0 | 0.00 | 0.00 | 0.00 | 91 | 1007.8 |
| 20260506205349 | 57 | 211 | 9.6 | 11.3 | 0.00 | 0.00 | 0.00 | 91 | 1007.8 |
| 20260506204846 | 57 | 211 | 10.4 | 12.2 | 0.00 | 0.00 | 0.00 | 91 | 1007.7 |
| 20260506204343 | 56 | 212 | 13.9 | 15.6 | 0.00 | 0.00 | 0.00 | 91 | 1007.9 |
| 20260506203841 | 57 | 204 | 12.2 | 13.0 | 0.00 | 0.00 | 0.00 | 91 | 1007.8 |
| 20260506203338 | 57 | 200 | 13.0 | 14.8 | 0.00 | 0.00 | 0.00 | 90 | 1007.8 |
| 20260506202834 | 57 | 208 | 11.3 | 13.0 | 0.00 | 0.00 | 0.00 | 90 | 1007.9 |
| 20260506202332 | 58 | 229 | 9.6 | 11.3 | 0.00 | 0.00 | 0.00 | 90 | 1007.9 |
| 20260506201828 | 58 | 211 | 14.8 | 16.5 | 0.00 | 0.00 | 0.00 | 90 | 1008.0 |
| 20260506201326 | 58 | 219 | 11.3 | 12.2 | 0.00 | 0.00 | 0.00 | 89 | 1008.1 |
| 20260506200822 | 58 | 219 | 11.3 | 13.0 | 0.00 | 0.00 | 0.00 | 89 | 1007.9 |
| 20260506200318 | 58 | 213 | 14.8 | 15.6 | 0.00 | 0.00 | 0.00 | 88 | 1007.9 |
| 20260506195814 | 58 | 221 | 13.0 | 13.9 | 0.00 | 0.00 | 0.00 | 88 | 1008.2 |
| 20260506195312 | 58 | 209 | 14.8 | 15.6 | 0.00 | 0.00 | 0.00 | 87 | 1008.3 |
| 20260506194809 | 58 | 218 | 13.0 | 14.8 | 0.00 | 0.00 | 0.00 | 87 | 1008.3 |
| 20260506194305 | 58 | 212 | 18.2 | 19.1 | 0.00 | 0.00 | 0.00 | 88 | 1008.2 |
| 20260506193803 | 58 | 207 | 14.8 | 15.6 | 0.00 | 0.00 | 0.00 | 88 | 1008.1 |
| 20260506193259 | 58 | 210 | 16.5 | 16.5 | 0.00 | 0.00 | 0.00 | 87 | 1008.4 |
| 20260506192755 | 58 | 203 | 16.5 | 18.2 | 0.00 | 0.00 | 0.00 | 86 | 1008.0 |
| 20260506192253 | 59 | 222 | 16.5 | 19.1 | 0.00 | 0.00 | 0.00 | 85 | 1008.3 |
| 20260506191750 | 59 | 216 | 15.6 | 16.5 | 0.00 | 0.00 | 0.00 | 84 | 1008.2 |
| 20260506191246 | 59 | 220 | 18.2 | 19.1 | 0.00 | 0.00 | 0.00 | 83 | 1008.2 |
| 20260506190743 | 60 | 233 | 20.0 | 20.9 | 0.00 | 0.00 | 0.00 | 82 | 1008.3 |
| 20260506190240 | 60 | 226 | 14.8 | 18.2 | 0.00 | 0.00 | 0.00 | 81 | 1008.2 |
| 20260506185737 | 60 | 231 | 16.5 | 18.2 | 0.00 | 0.00 | 0.00 | 81 | 1008.4 |
| 20260506185233 | 60 | 207 | 13.0 | 13.9 | 0.00 | 0.00 | 0.00 | 79 | 1008.5 |
| 20260506184730 | 60 | 226 | 14.8 | 15.6 | 0.00 | 0.00 | 0.00 | 79 | 1008.6 |
| 20260506184228 | 60 | 225 | 15.6 | 18.2 | 0.00 | 0.00 | 0.00 | 79 | 1008.5 |
| 20260506183725 | 60 | 210 | 13.9 | 14.8 | 0.00 | 0.00 | 0.00 | 80 | 1008.5 |
| 20260506183220 | 60 | 217 | 13.9 | 16.5 | 0.00 | 0.00 | 0.00 | 79 | 1008.8 |
| 20260506182718 | 60 | 222 | 13.9 | 16.5 | 0.00 | 0.00 | 0.00 | 80 | 1008.7 |
| 20260506182215 | 60 | 220 | 17.4 | 19.1 | 0.00 | 0.00 | 0.00 | 79 | 1008.7 |
| 20260506181713 | 60 | 206 | 15.6 | 16.5 | 0.00 | 0.00 | 0.00 | 80 | 1008.9 |
| 20260506181210 | 60 | 233 | 17.4 | 20.0 | 0.00 | 0.00 | 0.00 | 80 | 1008.9 |
| 20260506180707 | 60 | 217 | 14.8 | 16.5 | 0.00 | 0.00 | 0.00 | 79 | 1008.9 |
| 20260506180202 | 60 | 204 | 17.4 | 18.2 | 0.00 | 0.00 | 0.00 | 79 | 1009.0 |
| 20260506175659 | 60 | 219 | 19.1 | 20.0 | 0.00 | 0.00 | 0.00 | 79 | 1008.8 |
| 20260506175156 | 60 | 219 | 22.6 | 23.5 | 0.00 | 0.00 | 0.00 | 79 | 1009.0 |
| 20260506174649 | 61 | 213 | 19.1 | 20.9 | 0.00 | 0.00 | 0.00 | 79 | 1009.1 |
| 20260506174145 | 61 | 219 | 20.9 | 22.6 | 0.00 | 0.00 | 0.00 | 78 | 1009.2 |
| 20260506173643 | 61 | 212 | 23.5 | 26.1 | 0.00 | 0.00 | 0.00 | 78 | 1009.1 |
| 20260506173140 | 61 | 213 | 20.0 | 21.7 | 0.00 | 0.00 | 0.00 | 78 | 1009.3 |
| 20260506172637 | 62 | 229 | 16.5 | 18.2 | 0.00 | 0.00 | 0.00 | 77 | 1009.6 |
| 20260506172133 | 62 | 213 | 20.9 | 23.5 | 0.00 | 0.00 | 0.00 | 76 | 1009.5 |
| 20260506171631 | 62 | 218 | 20.9 | 25.2 | 0.00 | 0.00 | 0.00 | 77 | 1009.5 |
| 20260506171129 | 62 | 212 | 17.4 | 18.2 | 0.00 | 0.00 | 0.00 | 76 | 1009.4 |
| 20260506170626 | 62 | 214 | 18.2 | 22.6 | 0.00 | 0.00 | 0.00 | 76 | 1009.3 |
| 20260506170123 | 62 | 212 | 15.6 | 16.5 | 0.00 | 0.00 | 0.00 | 78 | 1009.4 |
| 20260506165621 | 61 | 221 | 17.4 | 20.9 | 0.00 | 0.00 | 0.00 | 78 | 1009.6 |
| 20260506165117 | 61 | 220 | 21.7 | 26.1 | 0.00 | 0.00 | 0.00 | 78 | 1009.3 |
| 20260506164614 | 61 | 203 | 18.2 | 20.9 | 0.00 | 0.00 | 0.00 | 79 | 1009.8 |
| 20260506164112 | 61 | 228 | 17.4 | 19.1 | 0.00 | 0.00 | 0.00 | 78 | 1009.7 |
| 20260506163607 | 61 | 206 | 18.2 | 20.0 | 0.00 | 0.00 | 0.00 | 77 | 1009.9 |
| 20260506163103 | 61 | 231 | 18.2 | 20.9 | 0.00 | 0.00 | 0.00 | 78 | 1010.0 |
| 20260506162559 | 60 | 219 | 18.2 | 20.0 | 0.00 | 0.00 | 0.00 | 79 | 1010.2 |
| 20260506162051 | 60 | 220 | 18.2 | 20.0 | 0.00 | 0.00 | 0.00 | 79 | 1010.2 |
| 20260506161548 | 60 | 218 | 16.5 | 20.0 | 0.00 | 0.00 | 0.00 | 78 | 1010.1 |
| 20260506161040 | 61 | 212 | 20.0 | 21.7 | 0.00 | 0.00 | 0.00 | 78 | 1010.1 |
| 20260506160537 | 61 | 198 | 18.2 | 20.9 | 0.00 | 0.00 | 0.00 | 78 | 1010.2 |
| 20260506160034 | 61 | 209 | 15.6 | 16.5 | 0.00 | 0.00 | 0.00 | 76 | 1010.2 |
| 20260506155532 | 62 | 205 | 17.4 | 19.1 | 0.00 | 0.00 | 0.00 | 76 | 1010.3 |
| 20260506153704 | 62 | 223 | 20.0 | 20.9 | 0.00 | 0.00 | 0.00 | 77 | 1010.3 |
| 20260506153201 | 62 | 214 | 18.2 | 20.9 | 0.00 | 0.00 | 0.00 | 76 | 1010.3 |
| 20260506152658 | 62 | 218 | 14.8 | 16.5 | 0.00 | 0.00 | 0.00 | 77 | 1010.4 |
| 20260506152155 | 62 | 209 | 16.5 | 18.2 | 0.00 | 0.00 | 0.00 | 75 | 1010.2 |
| 20260506151654 | 61 | 201 | 19.1 | 21.7 | 0.00 | 0.00 | 0.00 | 78 | 1010.5 |
| 20260506151150 | 62 | 212 | 17.4 | 20.0 | 0.00 | 0.00 | 0.00 | 76 | 1010.6 |
| 20260506150647 | 61 | 205 | 18.2 | 19.1 | 0.00 | 0.00 | 0.00 | 76 | 1010.2 |
| 20260506150144 | 61 | 213 | 20.0 | 21.7 | 0.00 | 0.00 | 0.00 | 77 | 1010.5 |
| 20260506145641 | 61 | 208 | 16.5 | 19.1 | 0.00 | 0.00 | 0.00 | 78 | 1010.7 |
| 20260506145137 | 60 | 208 | 18.2 | 20.0 | 0.00 | 0.00 | 0.00 | 79 | 1010.7 |
| 20260506144636 | 60 | 214 | 15.6 | 18.2 | 0.00 | 0.00 | 0.00 | 78 | 1010.6 |
| 20260506144132 | 60 | 205 | 14.8 | 18.2 | 0.00 | 0.00 | 0.00 | 78 | 1010.4 |
| 20260506143630 | 60 | 216 | 18.2 | 20.9 | 0.00 | 0.00 | 0.00 | 80 | 1010.4 |
| 20260506143127 | 60 | 207 | 18.2 | 20.0 | 0.00 | 0.00 | 0.00 | 79 | 1010.4 |
| 20260506142626 | 60 | 216 | 19.1 | 20.9 | 0.00 | 0.00 | 0.00 | 79 | 1010.7 |
| 20260506142123 | 60 | 210 | 20.0 | 21.7 | 0.00 | 0.00 | 0.00 | 79 | 1010.5 |
| 20260506141621 | 60 | 223 | 17.4 | 19.1 | 0.00 | 0.00 | 0.00 | 81 | 1010.7 |
| 20260506141119 | 60 | 209 | 15.6 | 18.2 | 0.00 | 0.00 | 0.00 | 79 | 1010.5 |
| 20260506140616 | 60 | 212 | 17.4 | 20.0 | 0.00 | 0.00 | 0.00 | 81 | 1010.5 |
| 20260506140113 | 59 | 208 | 18.2 | 20.0 | 0.00 | 0.00 | 0.00 | 81 | 1010.4 |
| 20260506135610 | 60 | 200 | 18.2 | 20.0 | 0.00 | 0.00 | 0.00 | 80 | 1010.1 |
| 20260506135106 | 60 | 212 | 14.8 | 16.5 | 0.00 | 0.00 | 0.00 | 80 | 1010.4 |
| 20260506134603 | 60 | 192 | 14.8 | 15.6 | 0.00 | 0.00 | 0.00 | 80 | 1010.6 |
| 20260506134058 | 60 | 204 | 12.2 | 13.0 | 0.00 | 0.00 | 0.00 | 80 | 1010.6 |
| 20260506133556 | 60 | 223 | 14.8 | 15.6 | 0.00 | 0.00 | 0.00 | 79 | 1010.6 |
| 20260506133053 | 60 | 214 | 13.9 | 14.8 | 0.00 | 0.00 | 0.00 | 80 | 1010.7 |
| 20260506132550 | 60 | 209 | 14.8 | 16.5 | 0.00 | 0.00 | 0.00 | 80 | 1010.8 |
| 20260506132047 | 60 | 208 | 14.8 | 16.5 | 0.00 | 0.00 | 0.00 | 80 | 1010.8 |
| 20260506131544 | 60 | 207 | 11.3 | 12.2 | 0.00 | 0.00 | 0.00 | 80 | 1010.8 |
| 20260506131041 | 59 | 219 | 16.5 | 18.2 | 0.00 | 0.00 | 0.00 | 81 | 1010.7 |
| 20260506130538 | 59 | 207 | 14.8 | 15.6 | 0.00 | 0.00 | 0.00 | 81 | 1010.9 |
| 20260506130035 | 59 | 208 | 15.6 | 18.2 | 0.00 | 0.00 | 0.00 | 82 | 1011.0 |
| 20260506125533 | 59 | 211 | 14.8 | 16.5 | 0.00 | 0.00 | 0.00 | 83 | 1011.0 |
| 20260506125031 | 59 | 219 | 16.5 | 18.2 | 0.00 | 0.00 | 0.00 | 83 | 1011.0 |
| 20260506124529 | 58 | 210 | 15.6 | 18.2 | 0.00 | 0.00 | 0.00 | 84 | 1010.8 |
| 20260506124026 | 58 | 220 | 15.6 | 16.5 | 0.00 | 0.00 | 0.00 | 84 | 1010.8 |
| 20260506123524 | 58 | 207 | 14.8 | 15.6 | 0.00 | 0.00 | 0.00 | 83 | 1010.8 |
| 20260506123022 | 58 | 199 | 16.5 | 19.1 | 0.00 | 0.00 | 0.00 | 84 | 1010.7 |
| 20260506122518 | 58 | 216 | 16.5 | 18.2 | 0.00 | 0.00 | 0.00 | 84 | 1010.9 |
| 20260506122016 | 58 | 217 | 13.9 | 15.6 | 0.00 | 0.00 | 0.00 | 84 | 1010.9 |
| 20260506121514 | 58 | 216 | 12.2 | 13.9 | 0.00 | 0.00 | 0.00 | 84 | 1010.9 |
| 20260506121010 | 58 | 204 | 11.3 | 13.0 | 0.00 | 0.00 | 0.00 | 84 | 1011.0 |
| 20260506120508 | 57 | 216 | 12.2 | 13.0 | 0.00 | 0.00 | 0.00 | 85 | 1011.0 |
| 20260506120005 | 57 | 216 | 13.0 | 13.9 | 0.00 | 0.00 | 0.00 | 85 | 1011.0 |
| 20260506115503 | 57 | 214 | 13.9 | 14.8 | 0.00 | 0.00 | 0.00 | 86 | 1011.1 |
| 20260506115001 | 57 | 205 | 13.0 | 13.9 | 0.00 | 0.00 | 0.00 | 86 | 1011.1 |
| 20260506114458 | 57 | 199 | 14.8 | 15.6 | 0.00 | 0.00 | 0.00 | 87 | 1011.1 |
| 20260506113956 | 57 | 209 | 13.0 | 14.8 | 0.00 | 0.00 | 0.00 | 86 | 1011.2 |
| 20260506113454 | 57 | 217 | 13.0 | 13.9 | 0.00 | 0.00 | 0.00 | 86 | 1011.4 |
| 20260506112950 | 57 | 206 | 13.9 | 15.6 | 0.00 | 0.00 | 0.00 | 86 | 1011.2 |
| 20260506112448 | 57 | 212 | 13.9 | 15.6 | 0.00 | 0.00 | 0.00 | 87 | 1011.2 |
| 20260506111945 | 57 | 215 | 12.2 | 13.0 | 0.00 | 0.00 | 0.00 | 87 | 1011.4 |
| 20260506111443 | 57 | 196 | 12.2 | 13.0 | 0.00 | 0.00 | 0.00 | 87 | 1011.4 |
| 20260506110939 | 57 | 218 | 12.2 | 13.9 | 0.00 | 0.00 | 0.00 | 87 | 1011.3 |
| 20260506110438 | 57 | 218 | 16.5 | 16.5 | 0.00 | 0.00 | 0.00 | 87 | 1011.3 |
| 20260506105934 | 57 | 217 | 11.3 | 13.0 | 0.00 | 0.00 | 0.00 | 88 | 1011.2 |
| 20260506105430 | 57 | 213 | 12.2 | 13.0 | 0.00 | 0.00 | 0.00 | 87 | 1011.3 |
| 20260506104928 | 57 | 202 | 13.0 | 13.0 | 0.00 | 0.00 | 0.00 | 87 | 1011.1 |
| 20260506104425 | 57 | 209 | 11.3 | 12.2 | 0.00 | 0.00 | 0.00 | 86 | 1011.1 |
| 20260506103924 | 57 | 212 | 12.2 | 13.0 | 0.00 | 0.00 | 0.00 | 86 | 1010.9 |
| 20260506103421 | 57 | 227 | 11.3 | 13.0 | 0.00 | 0.00 | 0.00 | 86 | 1011.1 |
| 20260506102917 | 58 | 232 | 12.2 | 13.9 | 0.00 | 0.00 | 0.00 | 86 | 1011.0 |
| 20260506102416 | 57 | 218 | 13.0 | 14.8 | 0.00 | 0.00 | 0.00 | 86 | 1011.0 |
| 20260506101913 | 57 | 219 | 17.4 | 20.0 | 0.00 | 0.00 | 0.00 | 86 | 1010.7 |
| 20260506101409 | 57 | 222 | 14.8 | 15.6 | 0.00 | 0.00 | 0.00 | 87 | 1011.0 |
| 20260506100906 | 57 | 214 | 11.3 | 13.0 | 0.00 | 0.00 | 0.00 | 87 | 1011.2 |
| 20260506100404 | 57 | 207 | 11.3 | 12.2 | 0.00 | 0.00 | 0.00 | 86 | 1010.9 |
| 20260506095902 | 57 | 220 | 13.0 | 13.9 | 0.00 | 0.00 | 0.00 | 87 | 1010.8 |
| 20260506095400 | 57 | 208 | 10.4 | 11.3 | 0.00 | 0.00 | 0.00 | 86 | 1010.9 |
| 20260506094856 | 57 | 222 | 10.4 | 12.2 | 0.00 | 0.00 | 0.00 | 87 | 1010.8 |
| 20260506094355 | 57 | 226 | 14.8 | 15.6 | 0.00 | 0.00 | 0.00 | 86 | 1010.9 |
| 20260506093852 | 58 | 213 | 13.0 | 13.9 | 0.00 | 0.00 | 0.00 | 86 | 1010.9 |
| 20260506093350 | 58 | 228 | 15.6 | 16.5 | 0.00 | 0.00 | 0.00 | 87 | 1010.8 |
| 20260506092847 | 58 | 234 | 14.8 | 15.6 | 0.00 | 0.00 | 0.00 | 87 | 1010.9 |
| 20260506092345 | 58 | 212 | 13.9 | 14.8 | 0.00 | 0.00 | 0.00 | 87 | 1010.9 |
| 20260506091836 | 58 | 226 | 13.0 | 14.8 | 0.00 | 0.00 | 0.00 | 86 | 1010.9 |
| 20260506091334 | 58 | 222 | 13.9 | 14.8 | 0.00 | 0.00 | 0.00 | 86 | 1011.0 |
| 20260506090831 | 58 | 225 | 13.0 | 13.9 | 0.00 | 0.00 | 0.00 | 86 | 1010.8 |
| 20260506090328 | 58 | 224 | 13.0 | 14.8 | 0.00 | 0.00 | 0.00 | 86 | 1010.9 |
| 20260506085825 | 58 | 219 | 12.2 | 13.0 | 0.00 | 0.00 | 0.00 | 86 | 1011.2 |
| 20260506085321 | 58 | 217 | 13.0 | 13.9 | 0.00 | 0.00 | 0.00 | 86 | 1011.2 |
| 20260506084818 | 58 | 228 | 13.0 | 15.6 | 0.00 | 0.00 | 0.00 | 86 | 1011.2 |
| 20260506084315 | 58 | 209 | 14.8 | 16.5 | 0.00 | 0.00 | 0.00 | 86 | 1011.3 |
| 20260506083811 | 58 | 214 | 13.9 | 14.8 | 0.00 | 0.00 | 0.00 | 85 | 1011.2 |
| 20260506083309 | 58 | 201 | 14.8 | 18.2 | 0.00 | 0.00 | 0.00 | 85 | 1011.2 |
| 20260506082806 | 58 | 217 | 14.8 | 18.2 | 0.00 | 0.00 | 0.00 | 85 | 1011.0 |
| 20260506082304 | 58 | 207 | 14.8 | 16.5 | 0.00 | 0.00 | 0.00 | 85 | 1011.3 |
| 20260506081759 | 58 | 215 | 14.8 | 15.6 | 0.00 | 0.00 | 0.00 | 84 | 1011.3 |
| 20260506081257 | 58 | 224 | 13.9 | 14.8 | 0.00 | 0.00 | 0.00 | 85 | 1011.3 |
| 20260506080755 | 59 | 234 | 13.9 | 14.8 | 0.00 | 0.00 | 0.00 | 84 | 1011.3 |